Time;durP1;ratioP1;P1;durP2;ratioP2;P2;SDS_P1;SDS_P2;PMS_P1;PMS_P2;Temp;Humidity;BMP_temperature;BMP_pressure;BME280_temperature;BME280_humidity;BME280_pressure;Samples;Min_cycle;Max_cycle;Signal;HPM_P1;HPM_P2
2021/12/17 00:03:08;;;;;;;10.68;6.45;;;;;;;;;;5039352;28;20116;-82
2021/12/17 00:04:53;;;;;;;9.18;5.38;;;;;;;;;;5041902;28;20086;-84
2021/12/17 00:07:21;;;;;;;8.07;4.93;;;;;;;;;;5052120;28;20036;-82
2021/12/17 00:09:49;;;;;;;8.63;6.32;;;;;;;;;;5052470;28;20053;-80
2021/12/17 00:12:21;;;;;;;6.75;4.15;;;;;;;;;;5052400;28;20083;-78
2021/12/17 00:14:49;;;;;;;8.57;5.15;;;;;;;;;;5052571;28;20123;-81
2021/12/17 00:17:21;;;;;;;6.32;4.22;;;;;;;;;;5054164;28;20029;-81
2021/12/17 00:50:02;;;;;;;6.88;3.72;;;;;;;;;;5034603;28;20036;-79
2021/12/17 00:52:31;;;;;;;7.90;5.00;;;;;;;;;;5050831;28;20029;-80
2021/12/17 00:54:57;;;;;;;9.40;5.65;;;;;;;;;;5051391;28;20020;-81
2021/12/17 00:57:27;;;;;;;7.15;4.80;;;;;;;;;;5031720;28;20116;-81
2021/12/17 00:59:53;;;;;;;;;;;;;;;;;;5043221;28;20056;-80
2021/12/17 01:02:26;;;;;;;5.82;3.83;;;;;;;;;;5042622;28;19982;-80
2021/12/17 01:05:00;;;;;;;7.57;5.43;;;;;;;;;;5031753;28;20451;-80
2021/12/17 01:07:30;;;;;;;6.78;4.63;;;;;;;;;;5031450;28;20047;-82
2021/12/17 01:09:56;;;;;;;7.72;5.25;;;;;;;;;;5032869;28;20485;-81
2021/12/17 01:12:23;;;;;;;7.13;4.70;;;;;;;;;;5041459;28;20123;-82
2021/12/17 01:14:50;;;;;;;6.75;3.67;;;;;;;;;;5037472;28;20474;-80
2021/12/17 01:17:19;;;;;;;8.20;4.55;;;;;;;;;;5045167;28;20041;-80
2021/12/17 01:20:15;;;;;;;5.72;3.80;;;;;;;;;;5043431;28;20049;-81
2021/12/17 01:22:55;;;;;;;5.15;3.50;;;;;;;;;;5032293;28;20371;-82
2021/12/17 01:36:20;;;;;;;4.65;3.17;;;;;;;;;;5048367;28;20044;-80
2021/12/17 01:44:00;;;;;;;8.48;4.20;;;;;;;;;;5048955;28;20037;-80
2021/12/17 01:46:31;;;;;;;5.57;3.58;;;;;;;;;;5048119;28;20021;-79
2021/12/17 01:59:49;;;;;;;6.93;4.07;;;;;;;;;;5033116;28;20032;-80
2021/12/17 02:02:15;;;;;;;6.80;4.40;;;;;;;;;;5042001;28;20143;-79
2021/12/17 02:04:40;;;;;;;7.35;4.75;;;;;;;;;;5040966;28;20483;-82
2021/12/17 02:07:06;;;;;;;6.40;4.40;;;;;;;;;;5047516;28;20032;-80
2021/12/17 02:28:45;;;;;;;5.47;3.17;;;;;;;;;;5045604;28;20040;-81
2021/12/17 02:33:49;;;;;;;5.10;3.42;;;;;;;;;;5045868;28;20442;-81
2021/12/17 02:36:18;;;;;;;6.65;4.13;;;;;;;;;;5043123;28;20104;-79
2021/12/17 02:38:43;;;;;;;6.95;4.68;;;;;;;;;;5044296;28;20039;-80
2021/12/17 02:46:38;;;;;;;6.82;4.32;;;;;;;;;;5048702;28;20079;-79
2021/12/17 02:49:06;;;;;;;4.50;2.72;;;;;;;;;;5040109;28;20036;-80
2021/12/17 02:51:31;;;;;;;6.68;4.32;;;;;;;;;;5039094;28;20473;-79
2021/12/17 02:53:59;;;;;;;7.32;4.50;;;;;;;;;;5047138;28;20029;-79
2021/12/17 02:56:24;;;;;;;9.18;4.78;;;;;;;;;;5037795;28;20111;-79
2021/12/17 02:58:51;;;;;;;7.30;3.97;;;;;;;;;;5037577;28;20584;-80
2021/12/17 03:01:17;;;;;;;6.93;4.38;;;;;;;;;;5051079;28;20091;-80
2021/12/17 03:03:48;;;;;;;7.20;4.47;;;;;;;;;;5042418;28;20523;-81
2021/12/17 03:06:14;;;;;;;5.25;3.35;;;;;;;;;;5041321;28;20458;-81
2021/12/17 03:08:40;;;;;;;7.03;4.55;;;;;;;;;;5042404;28;20036;-80
2021/12/17 03:11:05;;;;;;;5.85;3.90;;;;;;;;;;5031264;28;20125;-80
2021/12/17 03:13:34;;;;;;;9.27;5.50;;;;;;;;;;5035025;28;20034;-79
2021/12/17 03:16:22;;;;;;;7.20;4.55;;;;;;;;;;5040461;28;20028;-80
2021/12/17 03:19:02;;;;;;;6.55;4.20;;;;;;;;;;5038491;28;20029;-80
2021/12/17 03:24:15;;;;;;;7.22;4.45;;;;;;;;;;5033316;28;20044;-79
2021/12/17 03:26:40;;;;;;;6.53;4.03;;;;;;;;;;5040380;28;20032;-80
2021/12/17 03:29:08;;;;;;;8.75;4.65;;;;;;;;;;5048496;28;20507;-81
2021/12/17 03:31:34;;;;;;;5.53;3.80;;;;;;;;;;5040162;28;20461;-80
2021/12/17 03:34:23;;;;;;;8.20;5.43;;;;;;;;;;5045612;28;20025;-80
2021/12/17 03:36:57;;;;;;;7.78;4.68;;;;;;;;;;5032760;28;20045;-79
2021/12/17 03:39:24;;;;;;;7.30;4.60;;;;;;;;;;5037796;28;20108;-80
2021/12/17 03:41:51;;;;;;;6.13;3.50;;;;;;;;;;5043865;28;20182;-81
2021/12/17 03:44:18;;;;;;;9.45;4.22;;;;;;;;;;5043775;28;20102;-80
2021/12/17 03:46:46;;;;;;;7.78;4.05;;;;;;;;;;5043219;28;20465;-81
2021/12/17 03:49:11;;;;;;;7.72;4.18;;;;;;;;;;5040704;28;20025;-81
2021/12/17 03:51:47;;;;;;;6.68;3.65;;;;;;;;;;5040631;28;20032;-82
2021/12/17 03:54:13;;;;;;;5.68;3.78;;;;;;;;;;5040595;28;20021;-80
2021/12/17 03:56:38;;;;;;;6.18;4.05;;;;;;;;;;5047239;28;20029;-82
2021/12/17 03:59:10;;;;;;;5.97;3.63;;;;;;;;;;5041505;28;20143;-81
2021/12/17 04:01:36;;;;;;;5.43;4.03;;;;;;;;;;5044232;28;20505;-80
2021/12/17 04:04:01;;;;;;;6.55;4.13;;;;;;;;;;5037493;28;20135;-82
2021/12/17 04:06:27;;;;;;;7.65;4.20;;;;;;;;;;5050319;28;20029;-81
2021/12/17 04:09:00;;;;;;;6.45;4.07;;;;;;;;;;5054340;28;20029;-81
2021/12/17 04:11:26;;;;;;;5.55;3.13;;;;;;;;;;5042119;28;20029;-79
2021/12/17 04:13:56;;;;;;;4.38;2.78;;;;;;;;;;5045093;28;20144;-78
2021/12/17 04:16:26;;;;;;;4.47;2.53;;;;;;;;;;5046395;28;20033;-80
2021/12/17 04:18:53;;;;;;;3.92;2.60;;;;;;;;;;5046081;28;20087;-79
2021/12/17 04:21:20;;;;;;;3.72;2.78;;;;;;;;;;5048255;28;20038;-80
2021/12/17 04:23:48;;;;;;;3.10;2.20;;;;;;;;;;5034295;28;20056;-82
2021/12/17 04:26:17;;;;;;;3.95;2.00;;;;;;;;;;5046046;28;20120;-81
2021/12/17 04:28:47;;;;;;;2.95;2.10;;;;;;;;;;5042082;28;20033;-82
2021/12/17 04:31:13;;;;;;;6.40;2.63;;;;;;;;;;5033935;28;20087;-80
2021/12/17 04:33:41;;;;;;;3.60;2.55;;;;;;;;;;5039421;28;20486;-80
2021/12/17 04:36:09;;;;;;;1.63;1.50;;;;;;;;;;5047691;28;20100;-78
2021/12/17 04:38:35;;;;;;;2.60;1.80;;;;;;;;;;5043408;28;20029;-79
2021/12/17 04:41:35;;;;;;;3.75;2.10;;;;;;;;;;5033930;28;20443;-80
2021/12/17 04:46:41;;;;;;;2.08;1.65;;;;;;;;;;5045206;28;20028;-79
2021/12/17 04:57:31;;;;;;;4.10;2.58;;;;;;;;;;5049580;28;20852;-81
2021/12/17 05:00:08;;;;;;;5.97;2.50;;;;;;;;;;5034474;28;20549;-81
2021/12/17 05:02:40;;;;;;;4.03;2.30;;;;;;;;;;5038424;28;20029;-82
2021/12/17 05:05:08;;;;;;;7.18;3.60;;;;;;;;;;5041960;28;20022;-82
2021/12/17 05:07:36;;;;;;;3.72;2.30;;;;;;;;;;5044506;28;20032;-82
2021/12/17 05:10:17;;;;;;;2.58;1.65;;;;;;;;;;5045536;28;20461;-82
2021/12/17 05:21:07;;;;;;;2.60;1.35;;;;;;;;;;5046664;28;20098;-78
2021/12/17 05:23:39;;;;;;;3.40;2.17;;;;;;;;;;5044737;28;20424;-80
2021/12/17 05:26:07;;;;;;;7.75;3.47;;;;;;;;;;5040464;28;20117;-80
2021/12/17 05:28:33;;;;;;;3.75;1.75;;;;;;;;;;5045022;28;20392;-82
2021/12/17 05:30:59;;;;;;;4.57;2.50;;;;;;;;;;5042296;28;20021;-80
2021/12/17 05:33:26;;;;;;;3.97;1.77;;;;;;;;;;5043608;28;20028;-81
2021/12/17 05:35:53;;;;;;;4.15;2.05;;;;;;;;;;5043812;28;20104;-83
2021/12/17 05:38:20;;;;;;;6.25;3.33;;;;;;;;;;5047219;28;20112;-81
2021/12/17 05:40:46;;;;;;;2.70;1.42;;;;;;;;;;5041839;28;20496;-81
2021/12/17 05:43:14;;;;;;;2.97;1.70;;;;;;;;;;5044448;28;20037;-80
2021/12/17 05:48:10;;;;;;;4.00;1.85;;;;;;;;;;5048727;28;20114;-81
2021/12/17 05:50:39;;;;;;;2.25;1.50;;;;;;;;;;5047878;28;20016;-81
2021/12/17 05:53:06;;;;;;;4.95;1.80;;;;;;;;;;5050235;28;20032;-78
2021/12/17 05:55:33;;;;;;;5.25;2.35;;;;;;;;;;5036380;28;20064;-77
2021/12/17 05:57:59;;;;;;;2.78;1.55;;;;;;;;;;5049044;28;20032;-77
2021/12/17 06:00:28;;;;;;;3.90;1.88;;;;;;;;;;5045207;28;20028;-78
2021/12/17 06:02:54;;;;;;;6.10;2.33;;;;;;;;;;5053264;28;20025;-78
2021/12/17 06:05:19;;;;;;;2.00;1.35;;;;;;;;;;5047495;28;20037;-79
2021/12/17 06:07:45;;;;;;;3.53;1.50;;;;;;;;;;5040824;28;20082;-77
2021/12/17 06:10:11;;;;;;;1.85;1.05;;;;;;;;;;5046737;28;20026;-77
2021/12/17 06:12:37;;;;;;;3.22;1.65;;;;;;;;;;5040654;28;20033;-79
2021/12/17 06:15:05;;;;;;;4.65;2.08;;;;;;;;;;5035260;28;20538;-78
2021/12/17 06:17:31;;;;;;;2.25;1.08;;;;;;;;;;5034095;28;20017;-78
2021/12/17 06:19:57;;;;;;;7.45;3.35;;;;;;;;;;5034119;28;20071;-77
2021/12/17 06:22:22;;;;;;;5.93;3.25;;;;;;;;;;5034024;28;20459;-77
2021/12/17 06:24:48;;;;;;;6.40;3.72;;;;;;;;;;5042221;28;20057;-78
2021/12/17 06:27:18;;;;;;;7.15;3.45;;;;;;;;;;5046532;28;20086;-77
2021/12/17 06:29:44;;;;;;;3.15;2.10;;;;;;;;;;5040662;28;20104;-79
2021/12/17 06:32:11;;;;;;;2.22;1.80;;;;;;;;;;5044994;28;20116;-77
2021/12/17 06:34:38;;;;;;;2.97;2.03;;;;;;;;;;5050648;28;20718;-79
2021/12/17 06:37:05;;;;;;;1.65;1.33;;;;;;;;;;5047156;28;20509;-78
2021/12/17 06:39:32;;;;;;;6.43;3.33;;;;;;;;;;5041030;28;20049;-78
2021/12/17 06:41:58;;;;;;;3.42;2.42;;;;;;;;;;5040138;28;20499;-79
2021/12/17 06:44:25;;;;;;;4.60;2.53;;;;;;;;;;5041284;28;20029;-78
2021/12/17 07:17:52;;;;;;;7.40;4.28;;;;;;;;;;5033297;28;20052;-78
2021/12/17 07:21:09;;;;;;;7.13;5.28;;;;;;;;;;5036333;28;20049;-78
2021/12/17 07:23:26;;;;;;;8.90;5.43;;;;;;;;;;5047080;28;20053;-78
2021/12/17 07:34:08;;;;;;;6.72;4.93;;;;;;;;;;5037090;28;20043;-78
2021/12/17 07:39:25;;;;;;;7.72;5.10;;;;;;;;;;5037788;28;20044;-77
2021/12/17 07:41:50;;;;;;;6.65;4.72;;;;;;;;;;5030276;28;20022;-78
2021/12/17 07:44:16;;;;;;;6.88;4.60;;;;;;;;;;5040306;28;20029;-77
2021/12/17 07:46:41;;;;;;;9.38;6.07;;;;;;;;;;5047557;28;20108;-76
2021/12/17 07:49:06;;;;;;;7.32;5.18;;;;;;;;;;5038734;28;20087;-76
2021/12/17 07:51:32;;;;;;;9.52;5.93;;;;;;;;;;5031134;28;20515;-78
2021/12/17 07:53:57;;;;;;;6.15;4.30;;;;;;;;;;5039147;28;20056;-77
2021/12/17 07:56:27;;;;;;;5.82;4.38;;;;;;;;;;5032906;28;20032;-77
2021/12/17 07:58:53;;;;;;;6.47;4.57;;;;;;;;;;5031638;28;20033;-78
2021/12/17 08:01:19;;;;;;;5.85;3.90;;;;;;;;;;5032631;28;20045;-78
2021/12/17 08:03:45;;;;;;;5.43;4.13;;;;;;;;;;5034948;28;20021;-77
2021/12/17 08:06:11;;;;;;;7.60;4.47;;;;;;;;;;5036161;28;20428;-78
2021/12/17 08:08:37;;;;;;;8.95;5.78;;;;;;;;;;5032243;28;20057;-78
2021/12/17 08:11:03;;;;;;;6.75;5.22;;;;;;;;;;5028562;28;20041;-78
2021/12/17 08:13:32;;;;;;;8.18;4.90;;;;;;;;;;5035676;28;20039;-77
2021/12/17 08:16:14;;;;;;;6.85;5.88;;;;;;;;;;5047517;28;20031;-77
2021/12/17 08:31:41;;;;;;;7.72;5.13;;;;;;;;;;5051981;28;20055;-77
2021/12/17 08:34:06;;;;;;;6.97;4.93;;;;;;;;;;5051772;28;20112;-77
2021/12/17 08:36:32;;;;;;;6.75;4.00;;;;;;;;;;5041239;28;20087;-77
2021/12/17 08:38:58;;;;;;;5.13;3.63;;;;;;;;;;5041252;28;20025;-78
2021/12/17 08:41:24;;;;;;;6.45;5.38;;;;;;;;;;5051294;28;20040;-78
2021/12/17 08:43:49;;;;;;;5.65;3.75;;;;;;;;;;5035696;28;20033;-77
2021/12/17 08:46:15;;;;;;;5.78;4.65;;;;;;;;;;5053414;28;20116;-77
2021/12/17 08:48:41;;;;;;;7.68;5.93;;;;;;;;;;5037410;28;20477;-78
2021/12/17 08:51:08;;;;;;;4.70;3.78;;;;;;;;;;5042487;28;20078;-77
2021/12/17 08:53:34;;;;;;;4.10;3.08;;;;;;;;;;5038188;28;20044;-77
2021/12/17 08:56:00;;;;;;;5.45;3.20;;;;;;;;;;5040660;28;20055;-77
2021/12/17 08:58:25;;;;;;;4.32;3.70;;;;;;;;;;5035472;28;20037;-78
2021/12/17 09:00:51;;;;;;;3.92;2.65;;;;;;;;;;5046990;28;20108;-78
2021/12/17 09:03:16;;;;;;;7.85;6.28;;;;;;;;;;5035790;28;20030;-77
2021/12/17 09:05:45;;;;;;;6.15;3.95;;;;;;;;;;5048035;28;20554;-79
2021/12/17 09:08:11;;;;;;;5.00;4.30;;;;;;;;;;5043589;28;20468;-78
2021/12/17 09:10:37;;;;;;;4.28;3.35;;;;;;;;;;5050317;28;20017;-77
2021/12/17 09:13:04;;;;;;;4.90;3.10;;;;;;;;;;5037019;28;20038;-77
2021/12/17 09:15:30;;;;;;;6.10;4.03;;;;;;;;;;5050047;28;20055;-77
2021/12/17 09:17:55;;;;;;;5.18;3.30;;;;;;;;;;5041987;28;20033;-77
2021/12/17 09:20:21;;;;;;;4.38;2.72;;;;;;;;;;5041005;28;20045;-77
2021/12/17 09:22:47;;;;;;;4.88;3.30;;;;;;;;;;5046491;28;20512;-76
2021/12/17 09:25:14;;;;;;;4.78;3.33;;;;;;;;;;5044271;28;20179;-77
2021/12/17 09:27:40;;;;;;;7.00;4.57;;;;;;;;;;5039605;28;20037;-77
2021/12/17 09:30:09;;;;;;;7.40;5.00;;;;;;;;;;5042827;28;20055;-78
2021/12/17 09:32:34;;;;;;;9.32;4.38;;;;;;;;;;5043594;28;20040;-78
2021/12/17 09:35:00;;;;;;;10.95;6.47;;;;;;;;;;5040013;28;20025;-77
2021/12/17 09:37:25;;;;;;;9.80;6.20;;;;;;;;;;5043327;28;20105;-77
2021/12/17 09:39:51;;;;;;;8.45;5.88;;;;;;;;;;5050854;28;20025;-79
2021/12/17 09:42:17;;;;;;;10.60;5.80;;;;;;;;;;5037913;28;20043;-79
2021/12/17 09:44:42;;;;;;;7.50;5.45;;;;;;;;;;5043490;28;20350;-79
2021/12/17 09:47:08;;;;;;;8.25;5.55;;;;;;;;;;5045653;28;20101;-79
2021/12/17 09:49:34;;;;;;;8.25;4.80;;;;;;;;;;5046553;28;20476;-80
2021/12/17 09:52:00;;;;;;;11.60;6.47;;;;;;;;;;5050318;28;20013;-79
2021/12/17 09:54:26;;;;;;;6.97;4.57;;;;;;;;;;5049798;28;20045;-78
2021/12/17 09:56:52;;;;;;;5.57;3.80;;;;;;;;;;5047017;28;20037;-79
2021/12/17 09:59:17;;;;;;;5.88;4.38;;;;;;;;;;5043165;28;20025;-79
2021/12/17 10:01:45;;;;;;;5.05;3.90;;;;;;;;;;5047751;28;20027;-79
2021/12/17 10:04:33;;;;;;;6.18;3.88;;;;;;;;;;5036861;28;20026;-79
2021/12/17 10:07:23;;;;;;;5.32;3.75;;;;;;;;;;5041825;28;20473;-79
2021/12/17 10:09:54;;;;;;;7.32;4.60;;;;;;;;;;5041227;28;20033;-79
2021/12/17 10:12:27;;;;;;;6.50;4.72;;;;;;;;;;5031600;28;20030;-79
2021/12/17 10:15:10;;;;;;;7.45;5.18;;;;;;;;;;5037044;28;20047;-79
2021/12/17 10:17:49;;;;;;;10.65;5.00;;;;;;;;;;5038770;28;21192;-79
2021/12/17 10:20:15;;;;;;;6.38;3.90;;;;;;;;;;5038499;28;20448;-78
2021/12/17 10:22:44;;;;;;;6.90;3.85;;;;;;;;;;5038717;28;20083;-80
2021/12/17 10:25:11;;;;;;;4.40;3.03;;;;;;;;;;5037776;28;20064;-78
2021/12/17 10:27:41;;;;;;;5.72;4.70;;;;;;;;;;5039325;28;20035;-78
2021/12/17 10:30:21;;;;;;;5.75;4.22;;;;;;;;;;5045633;28;20029;-78
2021/12/17 10:32:55;;;;;;;6.20;3.75;;;;;;;;;;5033570;28;20461;-79
2021/12/17 10:35:30;;;;;;;3.40;2.78;;;;;;;;;;5035608;28;20457;-78
2021/12/17 10:38:01;;;;;;;6.47;4.45;;;;;;;;;;5041289;28;20493;-79
2021/12/17 10:41:13;;;;;;;6.30;4.82;;;;;;;;;;5041219;28;20072;-81
2021/12/17 10:43:43;;;;;;;6.85;4.05;;;;;;;;;;5007938;28;20072;-80
2021/12/17 10:46:28;;;;;;;4.82;3.90;;;;;;;;;;5034085;28;20087;-80
2021/12/17 10:49:01;;;;;;;4.35;3.15;;;;;;;;;;5039403;28;20056;-80
2021/12/17 10:54:09;;;;;;;6.45;4.18;;;;;;;;;;5051073;28;20025;-79
2021/12/17 10:57:06;;;;;;;10.35;6.03;;;;;;;;;;5041888;28;20496;-79
2021/12/17 10:59:31;;;;;;;5.38;3.38;;;;;;;;;;5037973;28;20047;-80
2021/12/17 11:02:01;;;;;;;7.57;5.60;;;;;;;;;;5044662;28;20485;-79
2021/12/17 11:04:31;;;;;;;;;;;;;;;;;;5044777;28;20025;-79
2021/12/17 11:07:14;;;;;;;8.00;3.83;;;;;;;;;;5048369;28;19916;-79
2021/12/17 11:09:47;;;;;;;8.32;4.65;;;;;;;;;;5046061;28;20033;-80
2021/12/17 11:12:33;;;;;;;7.28;4.90;;;;;;;;;;5044652;28;20096;-80
2021/12/17 11:15:24;;;;;;;4.18;3.47;;;;;;;;;;5030992;28;20409;-80
2021/12/17 11:18:02;;;;;;;5.78;3.78;;;;;;;;;;5033080;28;20029;-79
2021/12/17 11:20:30;;;;;;;6.43;4.25;;;;;;;;;;5033127;28;20052;-79
2021/12/17 11:23:04;;;;;;;6.15;3.75;;;;;;;;;;5034033;28;20042;-79
2021/12/17 11:25:30;;;;;;;5.55;3.90;;;;;;;;;;5041430;28;20073;-79
2021/12/17 11:27:55;;;;;;;6.70;4.88;;;;;;;;;;5032696;28;20032;-80
2021/12/17 11:30:27;;;;;;;5.90;3.78;;;;;;;;;;5032160;28;20477;-79
2021/12/17 11:32:55;;;;;;;7.18;4.35;;;;;;;;;;5031151;28;20508;-78
2021/12/17 11:35:24;;;;;;;6.10;3.75;;;;;;;;;;5030580;28;20397;-78
2021/12/17 11:37:51;;;;;;;4.93;3.50;;;;;;;;;;5053156;28;20470;-79
2021/12/17 11:40:40;;;;;;;8.00;3.97;;;;;;;;;;5034795;28;20029;-81
2021/12/17 11:43:10;;;;;;;6.90;4.60;;;;;;;;;;5042450;28;20118;-78
2021/12/17 11:45:36;;;;;;;10.05;5.50;;;;;;;;;;5039365;28;20032;-79
2021/12/17 11:48:18;;;;;;;8.93;5.07;;;;;;;;;;5036469;28;20033;-79
2021/12/17 11:51:01;;;;;;;10.30;6.05;;;;;;;;;;5035463;28;20099;-80
2021/12/17 11:53:26;;;;;;;9.48;5.45;;;;;;;;;;5037832;28;20488;-80
2021/12/17 11:56:03;;;;;;;4.97;3.63;;;;;;;;;;5057112;28;20025;-80
2021/12/17 11:58:50;;;;;;;10.38;5.50;;;;;;;;;;5043986;28;20607;-79
2021/12/17 12:01:57;;;;;;;8.23;4.18;;;;;;;;;;5036917;28;20055;-79
2021/12/17 12:04:37;;;;;;;5.20;3.40;;;;;;;;;;5033544;28;20052;-79
2021/12/17 12:07:03;;;;;;;5.25;3.25;;;;;;;;;;5039506;28;20029;-79
2021/12/17 12:09:47;;;;;;;8.60;4.10;;;;;;;;;;5045638;28;20299;-79
2021/12/17 12:12:13;;;;;;;7.53;3.50;;;;;;;;;;5044727;28;20052;-79
2021/12/17 12:14:39;;;;;;;5.28;4.10;;;;;;;;;;5042382;28;20115;-79
2021/12/17 12:17:04;;;;;;;5.32;4.03;;;;;;;;;;5036808;28;20396;-80
2021/12/17 12:19:50;;;;;;;4.97;4.15;;;;;;;;;;5049415;28;20095;-79
2021/12/17 12:22:29;;;;;;;4.32;2.70;;;;;;;;;;5037357;28;20075;-80
2021/12/17 12:25:29;;;;;;;5.93;4.13;;;;;;;;;;5041680;28;20031;-80
2021/12/17 12:27:55;;;;;;;5.38;3.70;;;;;;;;;;5057713;28;20025;-79
2021/12/17 12:30:37;;;;;;;6.47;4.47;;;;;;;;;;5038134;28;20025;-81
2021/12/17 12:33:08;;;;;;;8.40;4.28;;;;;;;;;;5041121;28;20120;-81
2021/12/17 12:35:42;;;;;;;4.93;3.53;;;;;;;;;;5053370;28;20055;-83
2021/12/17 12:38:19;;;;;;;7.32;4.15;;;;;;;;;;5042394;28;20060;-81
2021/12/17 12:40:54;;;;;;;5.20;4.50;;;;;;;;;;5034421;28;20492;-82
2021/12/17 12:43:28;;;;;;;3.83;2.90;;;;;;;;;;5037702;28;20457;-82
2021/12/17 12:45:54;;;;;;;4.10;2.95;;;;;;;;;;5034794;28;20037;-81
2021/12/17 12:48:42;;;;;;;5.30;3.42;;;;;;;;;;5034374;28;20079;-81
2021/12/17 12:51:22;;;;;;;3.58;2.13;;;;;;;;;;5039603;28;20033;-82
2021/12/17 12:54:01;;;;;;;4.15;2.22;;;;;;;;;;5051082;28;20025;-82
2021/12/17 12:56:26;;;;;;;5.00;3.50;;;;;;;;;;5038067;28;20503;-81
2021/12/17 12:58:54;;;;;;;2.95;2.13;;;;;;;;;;5040676;28;20021;-81
2021/12/17 13:01:21;;;;;;;3.17;2.63;;;;;;;;;;5032904;28;20442;-81
2021/12/17 13:03:47;;;;;;;3.55;2.25;;;;;;;;;;5038891;28;20385;-80
2021/12/17 13:06:18;;;;;;;3.63;2.17;;;;;;;;;;5052639;28;20072;-79
2021/12/17 13:08:56;;;;;;;3.30;2.10;;;;;;;;;;5043366;28;20043;-79
2021/12/17 13:11:23;;;;;;;3.20;2.10;;;;;;;;;;5043048;28;20032;-79
2021/12/17 13:13:52;;;;;;;3.92;2.25;;;;;;;;;;5051978;28;20104;-78
2021/12/17 13:16:35;;;;;;;3.90;2.17;;;;;;;;;;5034744;28;20036;-79
2021/12/17 13:22:29;;;;;;;3.50;2.45;;;;;;;;;;5041717;28;20091;-79
2021/12/17 13:24:36;;;;;;;3.25;2.33;;;;;;;;;;5039227;28;20040;-79
2021/12/17 13:27:10;;;;;;;3.70;2.70;;;;;;;;;;5039277;28;20029;-79
2021/12/17 13:29:38;;;;;;;4.18;2.55;;;;;;;;;;5038204;28;20021;-78
2021/12/17 13:32:14;;;;;;;3.90;3.03;;;;;;;;;;5039716;28;20067;-79
2021/12/17 13:34:41;;;;;;;2.70;1.85;;;;;;;;;;5035326;28;20025;-79
2021/12/17 13:37:13;;;;;;;3.00;2.42;;;;;;;;;;5042191;28;20032;-79
2021/12/17 13:39:42;;;;;;;3.75;3.35;;;;;;;;;;5047094;28;20040;-78
2021/12/17 13:42:12;;;;;;;2.83;2.13;;;;;;;;;;5050631;28;20424;-80
2021/12/17 13:44:45;;;;;;;3.70;2.28;;;;;;;;;;5051817;28;20469;-79
2021/12/17 13:47:14;;;;;;;3.90;3.50;;;;;;;;;;5051174;28;20040;-79
2021/12/17 13:49:43;;;;;;;3.85;3.25;;;;;;;;;;5052809;28;20415;-80
2021/12/17 13:52:09;;;;;;;3.90;2.40;;;;;;;;;;5051085;28;20036;-79
2021/12/17 13:54:35;;;;;;;3.63;2.45;;;;;;;;;;5052391;28;20029;-79
2021/12/17 13:57:04;;;;;;;4.75;3.20;;;;;;;;;;5051933;28;20021;-79
2021/12/17 13:59:32;;;;;;;6.88;4.60;;;;;;;;;;5051033;28;20029;-79
2021/12/17 14:01:58;;;;;;;6.38;3.35;;;;;;;;;;5050699;28;20067;-79
2021/12/17 14:04:23;;;;;;;2.97;1.73;;;;;;;;;;5052576;28;20368;-80
2021/12/17 14:06:58;;;;;;;1.80;1.48;;;;;;;;;;5052247;28;20036;-79
2021/12/17 14:09:23;;;;;;;1.95;1.52;;;;;;;;;;5052160;28;20526;-79
2021/12/17 14:11:49;;;;;;;3.15;2.53;;;;;;;;;;5050790;28;20032;-80
2021/12/17 14:14:27;;;;;;;4.07;2.60;;;;;;;;;;5052001;28;20048;-80
2021/12/17 14:17:02;;;;;;;5.05;3.38;;;;;;;;;;5035151;28;20040;-79
2021/12/17 14:19:36;;;;;;;5.60;3.15;;;;;;;;;;5047055;28;20512;-79
2021/12/17 14:22:01;;;;;;;5.03;3.72;;;;;;;;;;5030919;28;20040;-78
2021/12/17 14:24:28;;;;;;;13.77;4.82;;;;;;;;;;5030696;28;20474;-79
2021/12/17 14:26:54;;;;;;;9.20;3.00;;;;;;;;;;5037411;28;20025;-79
2021/12/17 14:29:20;;;;;;;8.23;3.53;;;;;;;;;;5049330;28;20051;-79
2021/12/17 14:31:45;;;;;;;5.13;3.53;;;;;;;;;;5041175;28;20032;-78
2021/12/17 14:34:16;;;;;;;5.18;3.17;;;;;;;;;;5041847;28;20480;-79
2021/12/17 14:36:42;;;;;;;4.53;2.45;;;;;;;;;;5039886;28;20044;-79
2021/12/17 14:39:12;;;;;;;4.03;2.45;;;;;;;;;;5034002;28;20029;-79
2021/12/17 14:41:48;;;;;;;;;;;;;;;;;;5039027;28;20035;-79
2021/12/17 14:44:35;;;;;;;2.85;2.40;;;;;;;;;;5047772;28;19921;-78
2021/12/17 14:47:21;;;;;;;3.67;2.40;;;;;;;;;;5037600;28;20028;-79
2021/12/17 15:03:24;;;;;;;3.50;2.65;;;;;;;;;;5041939;28;20485;-81
2021/12/17 15:05:51;;;;;;;7.00;5.13;;;;;;;;;;5044878;28;20436;-84
2021/12/17 15:08:16;;;;;;;8.20;5.65;;;;;;;;;;5041287;28;20442;-82
2021/12/17 15:10:42;;;;;;;4.95;3.28;;;;;;;;;;5049316;28;20052;-82
2021/12/17 15:13:11;;;;;;;5.20;3.30;;;;;;;;;;5032236;28;20043;-82
2021/12/17 15:15:39;;;;;;;6.32;4.57;;;;;;;;;;5040670;28;20169;-83
2021/12/17 15:18:09;;;;;;;3.60;3.05;;;;;;;;;;5039097;28;20029;-82
2021/12/17 15:20:35;;;;;;;9.73;7.50;;;;;;;;;;5045981;28;20051;-83
2021/12/17 15:23:04;;;;;;;9.55;5.90;;;;;;;;;;5032516;28;20534;-80
2021/12/17 15:25:30;;;;;;;9.45;5.60;;;;;;;;;;5040381;28;20476;-80
2021/12/17 15:27:56;;;;;;;5.28;3.83;;;;;;;;;;5042317;28;20032;-82
2021/12/17 15:30:31;;;;;;;8.55;4.55;;;;;;;;;;5045104;28;20404;-81
2021/12/17 15:32:58;;;;;;;5.78;4.78;;;;;;;;;;5036204;28;20045;-81
2021/12/17 15:35:26;;;;;;;6.28;4.82;;;;;;;;;;5035753;28;20033;-83
2021/12/17 15:37:52;;;;;;;7.85;6.60;;;;;;;;;;5040399;28;20021;-82
2021/12/17 15:40:18;;;;;;;5.47;4.57;;;;;;;;;;5040937;28;20032;-82
2021/12/17 15:42:44;;;;;;;5.65;5.00;;;;;;;;;;5043527;28;20029;-83
2021/12/17 15:45:11;;;;;;;5.25;3.22;;;;;;;;;;5043583;28;20037;-81
2021/12/17 15:47:37;;;;;;;5.00;3.17;;;;;;;;;;5038306;28;20040;-81
2021/12/17 15:50:05;;;;;;;7.45;4.85;;;;;;;;;;5041120;28;20025;-82
2021/12/17 15:52:36;;;;;;;7.57;5.07;;;;;;;;;;5037032;28;20021;-83
2021/12/17 15:55:03;;;;;;;8.48;5.07;;;;;;;;;;5040029;28;20057;-82
2021/12/17 15:57:28;;;;;;;7.25;4.75;;;;;;;;;;5048846;28;20044;-82
2021/12/17 15:59:54;;;;;;;9.02;6.22;;;;;;;;;;5038446;28;20024;-83
2021/12/17 16:02:20;;;;;;;10.43;6.45;;;;;;;;;;5044957;28;20030;-83
2021/12/17 16:04:47;;;;;;;5.85;4.05;;;;;;;;;;5029376;28;20029;-85
2021/12/17 16:07:14;;;;;;;10.43;7.07;;;;;;;;;;5033810;28;20029;-82
2021/12/17 16:23:01;;;;;;;12.43;7.60;;;;;;;;;;5043632;28;20075;-81
2021/12/17 16:25:27;;;;;;;8.20;5.82;;;;;;;;;;5029832;28;20029;-84
2021/12/17 16:27:52;;;;;;;9.93;8.82;;;;;;;;;;5029209;28;20021;-86
2021/12/17 16:30:18;;;;;;;6.63;5.38;;;;;;;;;;5040524;28;20041;-82
2021/12/17 16:32:43;;;;;;;11.30;8.55;;;;;;;;;;5036869;28;20438;-84
2021/12/17 16:35:09;;;;;;;9.13;5.85;;;;;;;;;;5043930;28;20068;-83
2021/12/17 16:37:34;;;;;;;10.30;6.80;;;;;;;;;;5059373;28;20032;-82
2021/12/17 16:40:02;;;;;;;9.40;7.22;;;;;;;;;;5037028;28;20072;-83
2021/12/17 16:42:27;;;;;;;9.82;5.75;;;;;;;;;;5036024;28;20022;-83
2021/12/17 16:47:26;;;;;;;13.55;9.75;;;;;;;;;;5047866;28;20036;-83
2021/12/17 16:49:52;;;;;;;15.00;8.27;;;;;;;;;;5052340;28;20025;-81
2021/12/17 16:52:17;;;;;;;13.65;8.38;;;;;;;;;;5053570;28;20036;-83
2021/12/17 16:54:43;;;;;;;16.20;9.32;;;;;;;;;;5043843;28;20025;-85
2021/12/17 16:57:08;;;;;;;20.92;12.73;;;;;;;;;;5041044;28;20049;-82
2021/12/17 16:59:34;;;;;;;12.88;8.55;;;;;;;;;;5039362;28;20364;-81
2021/12/17 17:02:00;;;;;;;14.30;8.80;;;;;;;;;;5049504;28;20472;-80
2021/12/17 17:04:28;;;;;;;12.98;7.80;;;;;;;;;;5048934;28;20040;-80
2021/12/17 17:06:53;;;;;;;13.80;9.32;;;;;;;;;;5043391;28;20029;-80
2021/12/17 17:09:19;;;;;;;17.02;11.20;;;;;;;;;;5043953;28;20040;-81
2021/12/17 17:11:49;;;;;;;13.85;7.95;;;;;;;;;;5037591;28;20027;-80
2021/12/17 17:14:15;;;;;;;14.88;9.43;;;;;;;;;;5042063;28;20051;-80
2021/12/17 17:16:41;;;;;;;15.38;10.13;;;;;;;;;;5047465;28;20472;-80
2021/12/17 17:19:07;;;;;;;18.02;10.93;;;;;;;;;;5041906;28;20033;-80
2021/12/17 17:21:33;;;;;;;21.70;11.27;;;;;;;;;;5041135;28;20124;-81
2021/12/17 17:24:00;;;;;;;18.35;10.48;;;;;;;;;;5047195;28;20495;-80
2021/12/17 17:26:28;;;;;;;26.40;14.80;;;;;;;;;;5045367;28;20109;-81
2021/12/17 17:28:53;;;;;;;17.98;12.00;;;;;;;;;;5031316;28;20033;-81
2021/12/17 17:31:19;;;;;;;21.30;13.90;;;;;;;;;;5039417;28;20032;-80
2021/12/17 17:33:49;;;;;;;21.30;13.85;;;;;;;;;;5039020;28;20054;-81
2021/12/17 17:36:16;;;;;;;22.33;14.27;;;;;;;;;;5034378;28;20509;-80
2021/12/17 17:38:42;;;;;;;22.30;13.52;;;;;;;;;;5039645;28;20040;-80
2021/12/17 17:41:07;;;;;;;16.02;10.77;;;;;;;;;;5047864;28;20444;-80
2021/12/17 17:43:33;;;;;;;21.48;13.25;;;;;;;;;;5031258;28;20381;-81
2021/12/17 17:45:58;;;;;;;20.90;13.43;;;;;;;;;;5031517;28;20021;-80
2021/12/17 17:48:24;;;;;;;15.98;8.95;;;;;;;;;;5031329;28;20033;-81
2021/12/17 17:50:50;;;;;;;18.60;11.13;;;;;;;;;;5031577;28;20018;-81
2021/12/17 17:53:15;;;;;;;21.20;13.38;;;;;;;;;;5032913;28;20064;-80
2021/12/17 17:55:42;;;;;;;20.23;12.50;;;;;;;;;;5041329;28;20479;-80
2021/12/17 17:58:08;;;;;;;20.92;15.15;;;;;;;;;;5038838;28;20037;-81
2021/12/17 18:00:35;;;;;;;19.02;12.07;;;;;;;;;;5040187;28;20389;-80
2021/12/17 18:03:00;;;;;;;16.13;9.70;;;;;;;;;;5039170;28;20048;-82
2021/12/17 18:05:26;;;;;;;23.75;13.73;;;;;;;;;;5049369;28;20055;-79
2021/12/17 18:07:52;;;;;;;18.45;11.30;;;;;;;;;;5042908;28;20470;-81
2021/12/17 18:10:19;;;;;;;18.63;12.30;;;;;;;;;;5033677;28;20037;-81
2021/12/17 18:12:49;;;;;;;21.70;11.35;;;;;;;;;;5036622;28;20029;-79
2021/12/17 18:15:16;;;;;;;21.42;13.80;;;;;;;;;;5035482;28;20496;-80